Weather at Christchurch International Airport

Public forecast

Using degrees Celsius for public forecast. Weather courtesy of forecast.io.

Current aviation weather report (METAR) for Christchurch International Airport

Report is more than 6 hours old.

2022/11/14 15:30 (retrieved 2 years ago)

NZCH 141530Z AUTO 07014KT 9999 OVC011/// 13/11 Q1012 NOSIG

Aviation forecast (TAF) for Christchurch International Airport

Forecast is more than 12 hours old.

2023/02/22 21:20 (retrieved 1 year ago)

TAF NZCH 222009Z 2221/2400 21015KT 9999 -RA SCT035 BKN050 TEMPO 2221/2302 6000 RA BKN014 TEMPO 2302/2308 4000 +SHRA FEW020TCU BECMG 2308/2310 24005KT TEMPO 2308/2312 6000 SHRA